sensor_id;sensor_type;location;lat;lon;timestamp;P1;durP1;ratioP1;P2;durP2;ratioP2
1591;SDS011;789;51.612;7.510;2023-06-22T00:00:01;9.53;;;8.53;;
1591;SDS011;789;51.612;7.510;2023-06-22T00:02:33;9.30;;;8.40;;
1591;SDS011;789;51.612;7.510;2023-06-22T00:05:00;11.70;;;9.97;;
1591;SDS011;789;51.612;7.510;2023-06-22T00:07:27;9.87;;;8.90;;
1591;SDS011;789;51.612;7.510;2023-06-22T00:09:55;11.40;;;10.30;;
1591;SDS011;789;51.612;7.510;2023-06-22T00:12:22;11.33;;;9.57;;
1591;SDS011;789;51.612;7.510;2023-06-22T00:14:48;11.00;;;10.00;;
1591;SDS011;789;51.612;7.510;2023-06-22T00:17:18;10.73;;;9.73;;
1591;SDS011;789;51.612;7.510;2023-06-22T00:19:46;12.83;;;10.00;;
1591;SDS011;789;51.612;7.510;2023-06-22T00:22:18;10.27;;;9.20;;
1591;SDS011;789;51.612;7.510;2023-06-22T00:24:46;12.30;;;9.40;;
1591;SDS011;789;51.612;7.510;2023-06-22T00:27:14;11.57;;;10.47;;
1591;SDS011;789;51.612;7.510;2023-06-22T00:29:41;11.90;;;10.70;;
1591;SDS011;789;51.612;7.510;2023-06-22T00:32:08;11.00;;;10.03;;
1591;SDS011;789;51.612;7.510;2023-06-22T00:34:35;11.53;;;10.53;;
1591;SDS011;789;51.612;7.510;2023-06-22T00:37:01;11.97;;;10.87;;
1591;SDS011;789;51.612;7.510;2023-06-22T00:39:28;12.77;;;11.57;;
1591;SDS011;789;51.612;7.510;2023-06-22T00:41:58;11.77;;;10.67;;
1591;SDS011;789;51.612;7.510;2023-06-22T00:44:27;10.53;;;9.60;;
1591;SDS011;789;51.612;7.510;2023-06-22T00:46:53;11.87;;;10.73;;
1591;SDS011;789;51.612;7.510;2023-06-22T00:49:20;12.00;;;10.80;;
1591;SDS011;789;51.612;7.510;2023-06-22T00:51:47;11.37;;;10.37;;
1591;SDS011;789;51.612;7.510;2023-06-22T00:54:14;10.50;;;9.57;;
1591;SDS011;789;51.612;7.510;2023-06-22T00:56:41;11.43;;;10.30;;
1591;SDS011;789;51.612;7.510;2023-06-22T00:59:08;11.13;;;10.03;;
1591;SDS011;789;51.612;7.510;2023-06-22T01:01:38;11.50;;;10.40;;
1591;SDS011;789;51.612;7.510;2023-06-22T01:04:06;11.17;;;10.00;;
1591;SDS011;789;51.612;7.510;2023-06-22T01:06:35;11.07;;;10.00;;
1591;SDS011;789;51.612;7.510;2023-06-22T01:09:06;11.10;;;10.03;;
1591;SDS011;789;51.612;7.510;2023-06-22T01:11:41;13.70;;;11.70;;
1591;SDS011;789;51.612;7.510;2023-06-22T01:14:12;12.27;;;11.13;;
1591;SDS011;789;51.612;7.510;2023-06-22T01:16:46;12.20;;;11.00;;
1591;SDS011;789;51.612;7.510;2023-06-22T01:19:19;12.60;;;11.60;;
1591;SDS011;789;51.612;7.510;2023-06-22T01:21:55;15.07;;;11.50;;
1591;SDS011;789;51.612;7.510;2023-06-22T01:24:26;14.00;;;10.93;;
1591;SDS011;789;51.612;7.510;2023-06-22T01:27:09;13.53;;;12.23;;
1591;SDS011;789;51.612;7.510;2023-06-22T01:29:48;12.90;;;11.80;;
1591;SDS011;789;51.612;7.510;2023-06-22T01:32:16;14.10;;;12.70;;
1591;SDS011;789;51.612;7.510;2023-06-22T01:34:44;13.57;;;12.17;;
1591;SDS011;789;51.612;7.510;2023-06-22T01:37:12;14.27;;;13.07;;
1591;SDS011;789;51.612;7.510;2023-06-22T01:39:39;13.03;;;11.93;;
1591;SDS011;789;51.612;7.510;2023-06-22T01:42:07;13.83;;;12.63;;
1591;SDS011;789;51.612;7.510;2023-06-22T01:44:33;14.07;;;12.87;;
1591;SDS011;789;51.612;7.510;2023-06-22T01:47:02;13.70;;;12.43;;
1591;SDS011;789;51.612;7.510;2023-06-22T01:49:30;14.50;;;13.10;;
1591;SDS011;789;51.612;7.510;2023-06-22T01:51:57;14.20;;;12.90;;
1591;SDS011;789;51.612;7.510;2023-06-22T01:54:24;15.20;;;13.60;;
1591;SDS011;789;51.612;7.510;2023-06-22T01:56:51;13.53;;;12.23;;
1591;SDS011;789;51.612;7.510;2023-06-22T01:59:20;15.00;;;13.60;;
1591;SDS011;789;51.612;7.510;2023-06-22T02:01:54;15.93;;;14.33;;
1591;SDS011;789;51.612;7.510;2023-06-22T02:04:30;14.80;;;13.47;;
1591;SDS011;789;51.612;7.510;2023-06-22T02:07:02;14.97;;;13.57;;
1591;SDS011;789;51.612;7.510;2023-06-22T02:09:35;13.83;;;12.43;;
1591;SDS011;789;51.612;7.510;2023-06-22T02:12:05;15.07;;;13.77;;
1591;SDS011;789;51.612;7.510;2023-06-22T02:14:34;15.37;;;13.87;;
1591;SDS011;789;51.612;7.510;2023-06-22T02:17:02;15.53;;;14.03;;
1591;SDS011;789;51.612;7.510;2023-06-22T02:19:35;14.17;;;13.00;;
1591;SDS011;789;51.612;7.510;2023-06-22T02:22:02;15.80;;;14.30;;
1591;SDS011;789;51.612;7.510;2023-06-22T02:24:30;14.97;;;13.67;;
1591;SDS011;789;51.612;7.510;2023-06-22T02:26:58;13.93;;;12.63;;
1591;SDS011;789;51.612;7.510;2023-06-22T02:29:26;15.40;;;13.80;;
1591;SDS011;789;51.612;7.510;2023-06-22T02:31:53;15.73;;;14.17;;
1591;SDS011;789;51.612;7.510;2023-06-22T02:34:20;14.40;;;12.97;;
1591;SDS011;789;51.612;7.510;2023-06-22T02:36:49;15.63;;;14.03;;
1591;SDS011;789;51.612;7.510;2023-06-22T02:39:17;15.73;;;14.33;;
1591;SDS011;789;51.612;7.510;2023-06-22T02:41:48;15.60;;;14.03;;
1591;SDS011;789;51.612;7.510;2023-06-22T02:44:15;14.80;;;13.43;;
1591;SDS011;789;51.612;7.510;2023-06-22T02:46:42;14.90;;;13.60;;
1591;SDS011;789;51.612;7.510;2023-06-22T02:49:09;15.17;;;13.67;;
1591;SDS011;789;51.612;7.510;2023-06-22T02:51:37;16.37;;;14.90;;
1591;SDS011;789;51.612;7.510;2023-06-22T02:54:07;16.80;;;15.07;;
1591;SDS011;789;51.612;7.510;2023-06-22T02:56:33;16.67;;;15.17;;
1591;SDS011;789;51.612;7.510;2023-06-22T02:59:01;16.90;;;15.33;;
1591;SDS011;789;51.612;7.510;2023-06-22T03:01:30;16.60;;;15.20;;
1591;SDS011;789;51.612;7.510;2023-06-22T03:04:02;16.73;;;15.00;;
1591;SDS011;789;51.612;7.510;2023-06-22T03:06:29;15.80;;;14.47;;
1591;SDS011;789;51.612;7.510;2023-06-22T03:08:58;16.97;;;15.27;;
1591;SDS011;789;51.612;7.510;2023-06-22T03:11:27;16.40;;;14.70;;
1591;SDS011;789;51.612;7.510;2023-06-22T03:13:54;15.80;;;14.20;;
1591;SDS011;789;51.612;7.510;2023-06-22T03:16:21;16.67;;;15.10;;
1591;SDS011;789;51.612;7.510;2023-06-22T03:18:48;17.07;;;15.37;;
1591;SDS011;789;51.612;7.510;2023-06-22T03:21:14;18.60;;;17.10;;
1591;SDS011;789;51.612;7.510;2023-06-22T03:23:44;17.93;;;16.13;;
1591;SDS011;789;51.612;7.510;2023-06-22T03:26:11;17.93;;;16.33;;
1591;SDS011;789;51.612;7.510;2023-06-22T03:28:39;17.43;;;15.83;;
1591;SDS011;789;51.612;7.510;2023-06-22T03:31:06;16.50;;;15.10;;
1591;SDS011;789;51.612;7.510;2023-06-22T03:33:33;16.23;;;14.80;;
1591;SDS011;789;51.612;7.510;2023-06-22T03:36:00;17.30;;;15.67;;
1591;SDS011;789;51.612;7.510;2023-06-22T03:38:27;17.97;;;16.37;;
1591;SDS011;789;51.612;7.510;2023-06-22T03:40:54;17.53;;;15.80;;
1591;SDS011;789;51.612;7.510;2023-06-22T03:43:21;17.53;;;15.93;;
1591;SDS011;789;51.612;7.510;2023-06-22T03:45:50;20.27;;;16.73;;
1591;SDS011;789;51.612;7.510;2023-06-22T03:48:17;18.80;;;16.70;;
1591;SDS011;789;51.612;7.510;2023-06-22T03:50:44;18.47;;;16.63;;
1591;SDS011;789;51.612;7.510;2023-06-22T03:53:11;18.60;;;16.80;;
1591;SDS011;789;51.612;7.510;2023-06-22T03:55:40;18.90;;;17.10;;
1591;SDS011;789;51.612;7.510;2023-06-22T03:58:13;17.80;;;16.30;;
1591;SDS011;789;51.612;7.510;2023-06-22T04:00:40;19.90;;;18.07;;
1591;SDS011;789;51.612;7.510;2023-06-22T04:03:08;21.40;;;19.50;;
1591;SDS011;789;51.612;7.510;2023-06-22T04:05:37;19.70;;;17.70;;
1591;SDS011;789;51.612;7.510;2023-06-22T04:08:04;19.33;;;17.53;;
1591;SDS011;789;51.612;7.510;2023-06-22T04:10:31;20.00;;;18.13;;
1591;SDS011;789;51.612;7.510;2023-06-22T04:12:58;20.43;;;18.30;;
1591;SDS011;789;51.612;7.510;2023-06-22T04:15:24;19.63;;;17.77;;
1591;SDS011;789;51.612;7.510;2023-06-22T04:17:51;19.30;;;17.60;;
1591;SDS011;789;51.612;7.510;2023-06-22T04:20:21;20.30;;;18.30;;
1591;SDS011;789;51.612;7.510;2023-06-22T04:22:50;20.07;;;18.40;;
1591;SDS011;789;51.612;7.510;2023-06-22T04:25:17;19.63;;;17.80;;
1591;SDS011;789;51.612;7.510;2023-06-22T04:27:44;18.00;;;16.40;;
1591;SDS011;789;51.612;7.510;2023-06-22T04:30:11;20.20;;;17.57;;
1591;SDS011;789;51.612;7.510;2023-06-22T04:32:41;20.17;;;18.30;;
1591;SDS011;789;51.612;7.510;2023-06-22T04:35:09;20.27;;;18.47;;
1591;SDS011;789;51.612;7.510;2023-06-22T04:37:37;21.60;;;17.80;;
1591;SDS011;789;51.612;7.510;2023-06-22T04:40:05;19.53;;;17.63;;
1591;SDS011;789;51.612;7.510;2023-06-22T04:42:33;19.40;;;17.50;;
1591;SDS011;789;51.612;7.510;2023-06-22T04:45:01;19.57;;;17.70;;
1591;SDS011;789;51.612;7.510;2023-06-22T04:47:28;19.47;;;17.57;;
1591;SDS011;789;51.612;7.510;2023-06-22T04:49:55;20.27;;;18.27;;
1591;SDS011;789;51.612;7.510;2023-06-22T04:52:22;19.40;;;17.27;;
1591;SDS011;789;51.612;7.510;2023-06-22T04:54:52;22.00;;;19.90;;
1591;SDS011;789;51.612;7.510;2023-06-22T04:57:20;19.50;;;17.50;;
1591;SDS011;789;51.612;7.510;2023-06-22T04:59:57;20.50;;;18.60;;
1591;SDS011;789;51.612;7.510;2023-06-22T05:02:39;18.47;;;16.87;;
1591;SDS011;789;51.612;7.510;2023-06-22T05:05:07;23.43;;;18.27;;
1591;SDS011;789;51.612;7.510;2023-06-22T05:07:38;20.70;;;18.73;;
1591;SDS011;789;51.612;7.510;2023-06-22T05:10:09;19.90;;;17.90;;
1591;SDS011;789;51.612;7.510;2023-06-22T05:12:37;20.80;;;18.67;;
1591;SDS011;789;51.612;7.510;2023-06-22T05:15:05;19.53;;;17.63;;
1591;SDS011;789;51.612;7.510;2023-06-22T05:17:33;20.33;;;18.40;;
1591;SDS011;789;51.612;7.510;2023-06-22T05:20:00;19.90;;;18.10;;
1591;SDS011;789;51.612;7.510;2023-06-22T05:22:27;20.83;;;18.87;;
1591;SDS011;789;51.612;7.510;2023-06-22T05:24:54;21.67;;;19.57;;
1591;SDS011;789;51.612;7.510;2023-06-22T05:27:22;20.47;;;18.67;;
1591;SDS011;789;51.612;7.510;2023-06-22T05:29:49;20.10;;;18.20;;
1591;SDS011;789;51.612;7.510;2023-06-22T05:32:15;20.40;;;18.37;;
1591;SDS011;789;51.612;7.510;2023-06-22T05:34:43;20.97;;;18.80;;
1591;SDS011;789;51.612;7.510;2023-06-22T05:37:10;21.47;;;19.27;;
1591;SDS011;789;51.612;7.510;2023-06-22T05:39:37;22.10;;;19.63;;
1591;SDS011;789;51.612;7.510;2023-06-22T05:42:04;22.57;;;20.13;;
1591;SDS011;789;51.612;7.510;2023-06-22T05:44:33;46.43;;;20.60;;
1591;SDS011;789;51.612;7.510;2023-06-22T05:47:00;20.40;;;18.60;;
1591;SDS011;789;51.612;7.510;2023-06-22T05:49:27;21.20;;;19.07;;
1591;SDS011;789;51.612;7.510;2023-06-22T05:51:57;21.83;;;18.83;;
1591;SDS011;789;51.612;7.510;2023-06-22T05:54:24;26.97;;;18.27;;
1591;SDS011;789;51.612;7.510;2023-06-22T05:56:51;19.67;;;17.97;;
1591;SDS011;789;51.612;7.510;2023-06-22T05:59:20;23.67;;;18.87;;
1591;SDS011;789;51.612;7.510;2023-06-22T06:01:48;23.63;;;18.33;;
1591;SDS011;789;51.612;7.510;2023-06-22T06:04:16;20.53;;;18.43;;
1591;SDS011;789;51.612;7.510;2023-06-22T06:06:43;20.03;;;17.80;;
1591;SDS011;789;51.612;7.510;2023-06-22T06:09:09;19.57;;;17.77;;
1591;SDS011;789;51.612;7.510;2023-06-22T06:11:37;20.03;;;17.87;;
1591;SDS011;789;51.612;7.510;2023-06-22T06:14:04;21.43;;;18.43;;
1591;SDS011;789;51.612;7.510;2023-06-22T06:16:31;18.67;;;16.90;;
1591;SDS011;789;51.612;7.510;2023-06-22T06:18:59;17.80;;;15.97;;
1591;SDS011;789;51.612;7.510;2023-06-22T06:21:26;19.67;;;15.97;;
1591;SDS011;789;51.612;7.510;2023-06-22T06:23:53;18.30;;;16.53;;
1591;SDS011;789;51.612;7.510;2023-06-22T06:26:19;17.97;;;16.37;;
1591;SDS011;789;51.612;7.510;2023-06-22T06:28:55;19.77;;;17.30;;
1591;SDS011;789;51.612;7.510;2023-06-22T06:31:22;17.67;;;15.70;;
1591;SDS011;789;51.612;7.510;2023-06-22T06:33:49;18.83;;;16.00;;
1591;SDS011;789;51.612;7.510;2023-06-22T06:36:17;19.83;;;17.60;;
1591;SDS011;789;51.612;7.510;2023-06-22T06:38:44;19.03;;;16.67;;
1591;SDS011;789;51.612;7.510;2023-06-22T06:41:14;17.47;;;15.77;;
1591;SDS011;789;51.612;7.510;2023-06-22T06:43:42;18.57;;;16.67;;
1591;SDS011;789;51.612;7.510;2023-06-22T06:46:09;19.40;;;17.60;;
1591;SDS011;789;51.612;7.510;2023-06-22T06:48:36;18.53;;;16.80;;
1591;SDS011;789;51.612;7.510;2023-06-22T06:51:03;20.60;;;18.63;;
1591;SDS011;789;51.612;7.510;2023-06-22T06:53:31;20.30;;;17.97;;
1591;SDS011;789;51.612;7.510;2023-06-22T06:55:58;19.20;;;17.30;;
1591;SDS011;789;51.612;7.510;2023-06-22T06:58:26;18.40;;;16.60;;
1591;SDS011;789;51.612;7.510;2023-06-22T07:00:53;18.40;;;16.80;;
1591;SDS011;789;51.612;7.510;2023-06-22T07:03:19;19.10;;;17.30;;
1591;SDS011;789;51.612;7.510;2023-06-22T07:05:46;18.73;;;17.03;;
1591;SDS011;789;51.612;7.510;2023-06-22T07:08:13;19.30;;;17.40;;
1591;SDS011;789;51.612;7.510;2023-06-22T07:10:44;20.60;;;18.70;;
1591;SDS011;789;51.612;7.510;2023-06-22T07:13:11;20.57;;;18.70;;
1591;SDS011;789;51.612;7.510;2023-06-22T07:15:38;20.87;;;19.00;;
1591;SDS011;789;51.612;7.510;2023-06-22T07:18:05;26.27;;;20.90;;
1591;SDS011;789;51.612;7.510;2023-06-22T07:20:32;21.50;;;19.60;;
1591;SDS011;789;51.612;7.510;2023-06-22T07:23:02;21.97;;;20.03;;
1591;SDS011;789;51.612;7.510;2023-06-22T07:25:28;20.53;;;18.73;;
1591;SDS011;789;51.612;7.510;2023-06-22T07:28:00;20.73;;;19.03;;
1591;SDS011;789;51.612;7.510;2023-06-22T07:30:30;22.37;;;20.47;;
1591;SDS011;789;51.612;7.510;2023-06-22T07:32:58;22.23;;;20.27;;
1591;SDS011;789;51.612;7.510;2023-06-22T07:35:28;23.17;;;20.90;;
1591;SDS011;789;51.612;7.510;2023-06-22T07:37:55;24.37;;;21.97;;
1591;SDS011;789;51.612;7.510;2023-06-22T07:40:22;23.10;;;21.00;;
1591;SDS011;789;51.612;7.510;2023-06-22T07:42:48;26.30;;;24.13;;
1591;SDS011;789;51.612;7.510;2023-06-22T07:45:18;24.37;;;22.13;;
1591;SDS011;789;51.612;7.510;2023-06-22T07:47:47;26.13;;;23.80;;
1591;SDS011;789;51.612;7.510;2023-06-22T07:50:14;25.77;;;22.97;;
1591;SDS011;789;51.612;7.510;2023-06-22T07:52:41;25.70;;;22.93;;
1591;SDS011;789;51.612;7.510;2023-06-22T07:55:08;26.93;;;23.70;;
1591;SDS011;789;51.612;7.510;2023-06-22T07:57:35;24.80;;;22.60;;
1591;SDS011;789;51.612;7.510;2023-06-22T08:00:02;24.70;;;22.30;;
1591;SDS011;789;51.612;7.510;2023-06-22T08:02:39;25.10;;;22.70;;
1591;SDS011;789;51.612;7.510;2023-06-22T08:05:06;25.73;;;23.07;;
1591;SDS011;789;51.612;7.510;2023-06-22T08:07:33;26.17;;;23.67;;
1591;SDS011;789;51.612;7.510;2023-06-22T08:10:02;24.30;;;22.17;;
1591;SDS011;789;51.612;7.510;2023-06-22T08:12:28;24.57;;;22.27;;
1591;SDS011;789;51.612;7.510;2023-06-22T08:14:55;27.40;;;24.80;;
1591;SDS011;789;51.612;7.510;2023-06-22T08:17:22;27.33;;;24.83;;
1591;SDS011;789;51.612;7.510;2023-06-22T08:19:50;26.97;;;24.40;;
1591;SDS011;789;51.612;7.510;2023-06-22T08:22:17;27.93;;;25.03;;
1591;SDS011;789;51.612;7.510;2023-06-22T08:24:44;28.07;;;25.50;;
1591;SDS011;789;51.612;7.510;2023-06-22T08:27:11;27.97;;;25.50;;
1591;SDS011;789;51.612;7.510;2023-06-22T08:29:38;27.63;;;25.00;;
1591;SDS011;789;51.612;7.510;2023-06-22T08:32:07;27.57;;;25.27;;
1591;SDS011;789;51.612;7.510;2023-06-22T08:34:34;26.80;;;24.40;;
1591;SDS011;789;51.612;7.510;2023-06-22T08:37:03;26.73;;;24.20;;
1591;SDS011;789;51.612;7.510;2023-06-22T08:39:31;26.90;;;24.33;;
1591;SDS011;789;51.612;7.510;2023-06-22T08:41:58;27.90;;;23.87;;
1591;SDS011;789;51.612;7.510;2023-06-22T08:44:27;27.57;;;25.23;;
1591;SDS011;789;51.612;7.510;2023-06-22T08:46:54;26.00;;;23.70;;
1591;SDS011;789;51.612;7.510;2023-06-22T08:49:20;26.33;;;24.00;;
1591;SDS011;789;51.612;7.510;2023-06-22T08:51:47;26.57;;;23.97;;
1591;SDS011;789;51.612;7.510;2023-06-22T08:54:15;23.47;;;21.20;;
1591;SDS011;789;51.612;7.510;2023-06-22T08:56:42;24.47;;;22.27;;
1591;SDS011;789;51.612;7.510;2023-06-22T08:59:09;23.00;;;21.00;;
1591;SDS011;789;51.612;7.510;2023-06-22T09:01:36;22.23;;;20.33;;
1591;SDS011;789;51.612;7.510;2023-06-22T09:04:03;23.73;;;21.37;;
1591;SDS011;789;51.612;7.510;2023-06-22T09:06:32;22.67;;;20.27;;
1591;SDS011;789;51.612;7.510;2023-06-22T09:09:06;20.23;;;18.73;;
1591;SDS011;789;51.612;7.510;2023-06-22T09:11:34;21.07;;;19.27;;
1591;SDS011;789;51.612;7.510;2023-06-22T09:14:01;21.73;;;19.87;;
1591;SDS011;789;51.612;7.510;2023-06-22T09:16:28;20.67;;;18.93;;
1591;SDS011;789;51.612;7.510;2023-06-22T09:18:55;20.47;;;18.60;;
1591;SDS011;789;51.612;7.510;2023-06-22T09:21:22;19.10;;;17.30;;
1591;SDS011;789;51.612;7.510;2023-06-22T09:23:52;18.47;;;16.70;;
1591;SDS011;789;51.612;7.510;2023-06-22T09:26:18;19.87;;;18.07;;
1591;SDS011;789;51.612;7.510;2023-06-22T09:28:47;19.77;;;17.80;;
1591;SDS011;789;51.612;7.510;2023-06-22T09:31:13;18.40;;;17.00;;
1591;SDS011;789;51.612;7.510;2023-06-22T09:33:41;18.40;;;16.90;;
1591;SDS011;789;51.612;7.510;2023-06-22T09:36:09;18.07;;;16.60;;
1591;SDS011;789;51.612;7.510;2023-06-22T09:38:36;15.70;;;14.30;;
1591;SDS011;789;51.612;7.510;2023-06-22T09:41:02;15.83;;;14.47;;
1591;SDS011;789;51.612;7.510;2023-06-22T09:43:31;16.60;;;15.07;;
1591;SDS011;789;51.612;7.510;2023-06-22T09:46:01;15.80;;;14.40;;
1591;SDS011;789;51.612;7.510;2023-06-22T09:48:28;16.83;;;15.13;;
1591;SDS011;789;51.612;7.510;2023-06-22T09:50:55;15.73;;;14.13;;
1591;SDS011;789;51.612;7.510;2023-06-22T09:53:22;15.40;;;14.00;;
1591;SDS011;789;51.612;7.510;2023-06-22T09:55:49;17.07;;;13.30;;
1591;SDS011;789;51.612;7.510;2023-06-22T09:58:16;11.83;;;10.83;;
1591;SDS011;789;51.612;7.510;2023-06-22T10:00:42;12.57;;;11.60;;
1591;SDS011;789;51.612;7.510;2023-06-22T10:03:11;14.33;;;13.27;;
1591;SDS011;789;51.612;7.510;2023-06-22T10:05:37;15.50;;;14.27;;
1591;SDS011;789;51.612;7.510;2023-06-22T10:08:04;15.10;;;13.63;;
1591;SDS011;789;51.612;7.510;2023-06-22T10:10:32;14.17;;;12.80;;
1591;SDS011;789;51.612;7.510;2023-06-22T10:13:02;12.47;;;11.30;;
1591;SDS011;789;51.612;7.510;2023-06-22T10:15:34;14.67;;;13.33;;
1591;SDS011;789;51.612;7.510;2023-06-22T10:18:01;15.07;;;12.10;;
1591;SDS011;789;51.612;7.510;2023-06-22T10:20:29;13.97;;;12.97;;
1591;SDS011;789;51.612;7.510;2023-06-22T10:22:55;15.20;;;13.87;;
1591;SDS011;789;51.612;7.510;2023-06-22T10:25:22;14.30;;;12.37;;
1591;SDS011;789;51.612;7.510;2023-06-22T10:27:49;14.27;;;13.17;;
1591;SDS011;789;51.612;7.510;2023-06-22T10:30:16;14.63;;;13.23;;
1591;SDS011;789;51.612;7.510;2023-06-22T10:32:43;14.80;;;13.33;;
1591;SDS011;789;51.612;7.510;2023-06-22T10:35:10;14.30;;;13.10;;
1591;SDS011;789;51.612;7.510;2023-06-22T10:37:40;14.90;;;13.80;;
1591;SDS011;789;51.612;7.510;2023-06-22T10:40:08;16.60;;;15.27;;
1591;SDS011;789;51.612;7.510;2023-06-22T10:42:36;18.70;;;17.10;;
1591;SDS011;789;51.612;7.510;2023-06-22T10:45:02;18.87;;;17.27;;
1591;SDS011;789;51.612;7.510;2023-06-22T10:47:30;19.27;;;17.53;;
1591;SDS011;789;51.612;7.510;2023-06-22T10:49:56;18.20;;;16.60;;
1591;SDS011;789;51.612;7.510;2023-06-22T10:52:23;16.37;;;15.00;;
1591;SDS011;789;51.612;7.510;2023-06-22T10:54:51;16.70;;;15.10;;
1591;SDS011;789;51.612;7.510;2023-06-22T10:57:21;18.73;;;17.23;;
1591;SDS011;789;51.612;7.510;2023-06-22T10:59:48;17.10;;;15.70;;
1591;SDS011;789;51.612;7.510;2023-06-22T11:02:15;14.93;;;13.63;;
1591;SDS011;789;51.612;7.510;2023-06-22T11:04:42;12.87;;;11.80;;
1591;SDS011;789;51.612;7.510;2023-06-22T11:07:09;13.40;;;12.40;;
1591;SDS011;789;51.612;7.510;2023-06-22T11:09:36;13.83;;;12.47;;
1591;SDS011;789;51.612;7.510;2023-06-22T11:12:06;12.70;;;11.60;;
1591;SDS011;789;51.612;7.510;2023-06-22T11:14:33;13.43;;;12.27;;
1591;SDS011;789;51.612;7.510;2023-06-22T11:17:01;12.90;;;11.67;;
1591;SDS011;789;51.612;7.510;2023-06-22T11:19:30;14.60;;;13.20;;
1591;SDS011;789;51.612;7.510;2023-06-22T11:21:56;14.70;;;13.20;;
1591;SDS011;789;51.612;7.510;2023-06-22T11:24:23;14.33;;;13.23;;
1591;SDS011;789;51.612;7.510;2023-06-22T11:26:50;13.63;;;12.53;;
1591;SDS011;789;51.612;7.510;2023-06-22T11:29:18;15.63;;;14.33;;
1591;SDS011;789;51.612;7.510;2023-06-22T11:31:46;12.93;;;11.80;;
1591;SDS011;789;51.612;7.510;2023-06-22T11:34:13;13.80;;;12.73;;
1591;SDS011;789;51.612;7.510;2023-06-22T11:36:40;12.27;;;11.17;;
1591;SDS011;789;51.612;7.510;2023-06-22T11:39:07;10.90;;;10.00;;
1591;SDS011;789;51.612;7.510;2023-06-22T11:41:35;11.10;;;10.20;;
1591;SDS011;789;51.612;7.510;2023-06-22T11:44:01;10.80;;;8.67;;
1591;SDS011;789;51.612;7.510;2023-06-22T11:46:31;14.63;;;9.97;;
1591;SDS011;789;51.612;7.510;2023-06-22T11:48:59;9.67;;;8.80;;
1591;SDS011;789;51.612;7.510;2023-06-22T11:51:28;24.57;;;11.27;;
1591;SDS011;789;51.612;7.510;2023-06-22T11:53:56;11.83;;;10.77;;
1591;SDS011;789;51.612;7.510;2023-06-22T11:56:23;13.03;;;11.77;;
1591;SDS011;789;51.612;7.510;2023-06-22T11:58:50;12.13;;;11.13;;
1591;SDS011;789;51.612;7.510;2023-06-22T12:01:17;12.73;;;11.63;;
1591;SDS011;789;51.612;7.510;2023-06-22T12:03:45;14.60;;;13.10;;
1591;SDS011;789;51.612;7.510;2023-06-22T12:06:13;15.10;;;13.70;;
1591;SDS011;789;51.612;7.510;2023-06-22T12:08:40;15.47;;;14.07;;
1591;SDS011;789;51.612;7.510;2023-06-22T12:11:06;14.90;;;13.60;;
1591;SDS011;789;51.612;7.510;2023-06-22T12:13:33;16.07;;;14.47;;
1591;SDS011;789;51.612;7.510;2023-06-22T12:16:00;17.63;;;16.13;;
1591;SDS011;789;51.612;7.510;2023-06-22T12:18:26;19.63;;;16.07;;
1591;SDS011;789;51.612;7.510;2023-06-22T12:20:54;19.80;;;16.13;;
1591;SDS011;789;51.612;7.510;2023-06-22T12:23:21;22.00;;;16.80;;
1591;SDS011;789;51.612;7.510;2023-06-22T12:25:48;20.27;;;18.40;;
1591;SDS011;789;51.612;7.510;2023-06-22T12:28:15;19.30;;;17.50;;
1591;SDS011;789;51.612;7.510;2023-06-22T12:30:42;19.97;;;18.00;;
1591;SDS011;789;51.612;7.510;2023-06-22T12:33:09;19.67;;;17.87;;
1591;SDS011;789;51.612;7.510;2023-06-22T12:35:37;19.67;;;17.77;;
1591;SDS011;789;51.612;7.510;2023-06-22T12:38:05;20.73;;;18.93;;
1591;SDS011;789;51.612;7.510;2023-06-22T12:40:33;19.23;;;17.53;;
1591;SDS011;789;51.612;7.510;2023-06-22T12:43:00;19.23;;;17.23;;
1591;SDS011;789;51.612;7.510;2023-06-22T12:45:27;20.27;;;18.33;;
1591;SDS011;789;51.612;7.510;2023-06-22T12:47:56;20.10;;;18.20;;
1591;SDS011;789;51.612;7.510;2023-06-22T12:50:24;21.23;;;19.13;;
1591;SDS011;789;51.612;7.510;2023-06-22T12:52:51;19.10;;;17.23;;
1591;SDS011;789;51.612;7.510;2023-06-22T12:55:19;20.13;;;18.27;;
1591;SDS011;789;51.612;7.510;2023-06-22T12:57:46;19.97;;;18.17;;
1591;SDS011;789;51.612;7.510;2023-06-22T13:00:15;20.33;;;18.33;;
1591;SDS011;789;51.612;7.510;2023-06-22T13:02:43;17.90;;;16.40;;
1591;SDS011;789;51.612;7.510;2023-06-22T13:05:10;19.60;;;17.90;;
1591;SDS011;789;51.612;7.510;2023-06-22T13:07:37;19.37;;;17.67;;
1591;SDS011;789;51.612;7.510;2023-06-22T13:10:04;18.57;;;17.00;;
1591;SDS011;789;51.612;7.510;2023-06-22T13:12:33;17.23;;;15.73;;
1591;SDS011;789;51.612;7.510;2023-06-22T13:15:00;17.27;;;15.70;;
1591;SDS011;789;51.612;7.510;2023-06-22T13:17:28;16.90;;;15.40;;
1591;SDS011;789;51.612;7.510;2023-06-22T13:19:57;16.57;;;15.27;;
1591;SDS011;789;51.612;7.510;2023-06-22T13:22:25;15.47;;;14.10;;
1591;SDS011;789;51.612;7.510;2023-06-22T13:24:54;17.07;;;15.53;;
1591;SDS011;789;51.612;7.510;2023-06-22T13:27:21;15.90;;;14.40;;
1591;SDS011;789;51.612;7.510;2023-06-22T13:29:52;15.40;;;14.00;;
1591;SDS011;789;51.612;7.510;2023-06-22T13:32:19;16.17;;;14.60;;
1591;SDS011;789;51.612;7.510;2023-06-22T13:34:45;15.70;;;14.37;;
1591;SDS011;789;51.612;7.510;2023-06-22T13:37:12;16.00;;;14.60;;
1591;SDS011;789;51.612;7.510;2023-06-22T13:39:39;15.33;;;14.13;;
1591;SDS011;789;51.612;7.510;2023-06-22T13:42:06;15.03;;;13.73;;
1591;SDS011;789;51.612;7.510;2023-06-22T13:44:34;16.70;;;15.00;;
1591;SDS011;789;51.612;7.510;2023-06-22T13:47:02;13.63;;;11.93;;
1591;SDS011;789;51.612;7.510;2023-06-22T13:49:29;14.27;;;12.90;;
1591;SDS011;789;51.612;7.510;2023-06-22T13:51:56;14.20;;;12.80;;
1591;SDS011;789;51.612;7.510;2023-06-22T13:54:23;13.10;;;12.10;;
1591;SDS011;789;51.612;7.510;2023-06-22T13:56:49;14.27;;;13.00;;
1591;SDS011;789;51.612;7.510;2023-06-22T13:59:16;14.27;;;12.97;;
1591;SDS011;789;51.612;7.510;2023-06-22T14:01:44;15.10;;;13.70;;
1591;SDS011;789;51.612;7.510;2023-06-22T14:04:13;15.23;;;13.97;;
1591;SDS011;789;51.612;7.510;2023-06-22T14:06:39;15.30;;;13.97;;
1591;SDS011;789;51.612;7.510;2023-06-22T14:09:06;16.10;;;14.70;;
1591;SDS011;789;51.612;7.510;2023-06-22T14:11:35;18.00;;;16.40;;
1591;SDS011;789;51.612;7.510;2023-06-22T14:14:02;18.57;;;17.00;;
1591;SDS011;789;51.612;7.510;2023-06-22T14:16:29;17.87;;;16.40;;
1591;SDS011;789;51.612;7.510;2023-06-22T14:18:56;19.27;;;17.67;;
1591;SDS011;789;51.612;7.510;2023-06-22T14:21:31;19.03;;;17.33;;
1591;SDS011;789;51.612;7.510;2023-06-22T14:23:58;20.63;;;18.60;;
1591;SDS011;789;51.612;7.510;2023-06-22T14:26:24;21.80;;;20.00;;
1591;SDS011;789;51.612;7.510;2023-06-22T14:28:51;21.07;;;19.23;;
1591;SDS011;789;51.612;7.510;2023-06-22T14:31:21;21.30;;;19.20;;
1591;SDS011;789;51.612;7.510;2023-06-22T14:33:49;21.10;;;19.07;;
1591;SDS011;789;51.612;7.510;2023-06-22T14:36:16;20.40;;;18.20;;
1591;SDS011;789;51.612;7.510;2023-06-22T14:38:44;23.03;;;21.07;;
1591;SDS011;789;51.612;7.510;2023-06-22T14:41:11;22.07;;;20.17;;
1591;SDS011;789;51.612;7.510;2023-06-22T14:43:43;21.80;;;19.90;;
1591;SDS011;789;51.612;7.510;2023-06-22T14:46:12;22.50;;;20.47;;
1591;SDS011;789;51.612;7.510;2023-06-22T14:48:38;20.60;;;18.90;;
1591;SDS011;789;51.612;7.510;2023-06-22T14:51:05;22.67;;;20.67;;
1591;SDS011;789;51.612;7.510;2023-06-22T14:53:32;21.03;;;19.20;;
1591;SDS011;789;51.612;7.510;2023-06-22T14:56:00;23.77;;;21.70;;
1591;SDS011;789;51.612;7.510;2023-06-22T14:58:27;21.87;;;20.17;;
1591;SDS011;789;51.612;7.510;2023-06-22T15:00:54;23.80;;;21.63;;
1591;SDS011;789;51.612;7.510;2023-06-22T15:03:23;23.27;;;21.20;;
1591;SDS011;789;51.612;7.510;2023-06-22T15:05:53;22.50;;;20.60;;